This is the latest recevied weather packets stored in our database for station/object DG3RAP-11. If no packets are shown the sender has not sent any weather packets the latest 10 day(s).
| Time | Temp. | Humidity | Pressure | Rain* | Wind** | Luminosity | Snow |
|---|---|---|---|---|---|---|---|
| 1777376703 | 18.89° C | 30% | 1017.9 hPa | 0 mm | - | - | - |
| 1777376164 | 18.33° C | 33% | 1017.8 hPa | 0 mm | - | - | - |
| 1777375624 | 18.33° C | 33% | 1018 hPa | 0 mm | - | - | - |
| 1777375083 | 17.78° C | 34% | 1018 hPa | 0 mm | - | - | - |
| 1777374543 | 17.78° C | 33% | 1018 hPa | 0 mm | - | - | - |
| 1777374003 | 17.22° C | 34% | 1018.3 hPa | 0 mm | - | - | - |
| 1777373643 | 17.78° C | 32% | 1018.2 hPa | 0 mm | - | - | - |
| 1777373103 | 17.78° C | 33% | 1018.2 hPa | 0 mm | - | - | - |
| 1777372563 | 18.33° C | 33% | 1018.1 hPa | 0 mm | - | - | - |
| 1777372023 | 17.78° C | 34% | 1018.2 hPa | 0 mm | - | - | - |
| 1777371484 | 18.89° C | 34% | 1018.1 hPa | 0 mm | - | - | - |
| 1777370943 | 17.22° C | 35% | 1018.4 hPa | 0 mm | - | - | - |
| 1777370403 | 17.78° C | 35% | 1018.3 hPa | 0 mm | - | - | - |
| 1777370043 | 18.33° C | 33% | 1018.2 hPa | 0 mm | - | - | - |
| 1777369503 | 17.22° C | 35% | 1018.4 hPa | 0 mm | - | - | - |
| 1777368963 | 16.67° C | 38% | 1018.5 hPa | 0 mm | - | - | - |
| 1777368423 | 16.11° C | 37% | 1018.4 hPa | 0 mm | - | - | - |
| 1777367883 | 16.11° C | 39% | 1018.4 hPa | 0 mm | - | - | - |
| 1777367343 | 16.11° C | 37% | 1018.7 hPa | 0 mm | - | - | - |
| 1777366804 | 16.67° C | 40% | 1018.5 hPa | 0 mm | - | - | - |
| 1777366443 | 16.11° C | 40% | 1018.6 hPa | 0 mm | - | - | - |
| 1777365903 | 15.56° C | 39% | 1018.7 hPa | 0 mm | - | - | - |
| 1777365363 | 15° C | 40% | 1018.7 hPa | 0 mm | - | - | - |
| 1777364824 | 14.44° C | 41% | 1018.5 hPa | 0 mm | - | - | - |
| 1777364283 | 14.44° C | 41% | 1018.8 hPa | 0 mm | - | - | - |
* Rain latest hour (hover to see other rain measurements)
** Current wind speed in m/s (hover to see current wind gust speed)